Terminal Aerodrome Forecast
Issued by NWS

Home | Current Version | Previous Version | Text Only | Print | Product List | Glossary On
Versions: 1 2 3 4 5 6 7 8 9 10 11 12 13 14 15 16 17 18 19
000
FTUS43 KDTX 271120
TAFMBS
TAF
KMBS 271120Z 2712/2812 14005KT P6SM SCT060 BKN090 OVC120
     FM271600 18007KT 6SM -SHRA OVC050
      TEMPO 2717/2721 4SM RA OVC030
     FM272200 14005KT P6SM SCT060 OVC120
     FM280800 28004KT P6SM BKN015=

USA.gov is the U.S. government's official web portal to all federal, state and local government web resources and services.